createdAt,value
2019-04-26T00:00:03.385Z,36.19
2019-04-26T00:01:03.375Z,35.99
2019-04-26T00:02:03.407Z,36.08
2019-04-26T00:03:03.338Z,35.88
2019-04-26T00:04:03.345Z,35.99
2019-04-26T00:05:03.328Z,35.78
2019-04-26T00:06:03.326Z,35.88
2019-04-26T00:07:03.342Z,35.88
2019-04-26T00:08:03.304Z,35.99
2019-04-26T00:09:03.287Z,35.78
2019-04-26T00:10:03.295Z,35.88
2019-04-26T00:11:03.254Z,36.00
2019-04-26T00:12:03.252Z,36.00
2019-04-26T00:13:39.141Z,35.80
2019-04-26T00:14:03.261Z,35.90
2019-04-26T00:15:03.290Z,36.00
2019-04-26T00:16:03.234Z,36.00
2019-04-26T00:17:03.253Z,36.10
2019-04-26T00:18:03.221Z,36.10
2019-04-26T00:19:03.203Z,36.10
2019-04-26T00:20:03.239Z,36.10
2019-04-26T00:21:03.197Z,36.10
2019-04-26T00:22:03.187Z,36.30
2019-04-26T00:23:03.161Z,36.22
2019-04-26T00:24:03.144Z,36.42
2019-04-26T00:25:03.187Z,36.32
2019-04-26T00:26:03.157Z,36.62
2019-04-26T00:27:03.135Z,36.42
2019-04-26T00:28:03.114Z,36.32
2019-04-26T00:29:03.093Z,36.22
2019-04-26T00:30:03.133Z,36.42
2019-04-26T00:31:03.077Z,36.42
2019-04-26T00:32:03.065Z,36.40
2019-04-26T00:33:03.058Z,36.32
2019-04-26T00:34:03.052Z,36.42
2019-04-26T00:35:03.070Z,36.32
2019-04-26T00:36:03.017Z,36.42
2019-04-26T00:37:03.075Z,36.32
2019-04-26T00:38:02.995Z,36.62
2019-04-26T00:39:02.991Z,36.82
2019-04-26T00:40:03.029Z,36.62
2019-04-26T00:41:02.983Z,36.62
2019-04-26T00:42:02.952Z,36.72
2019-04-26T00:43:02.990Z,36.72
2019-04-26T00:44:02.925Z,36.52
2019-04-26T00:45:02.947Z,36.62
2019-04-26T00:46:02.925Z,36.72
2019-04-26T00:47:02.905Z,36.64
2019-04-26T00:48:02.926Z,36.94
2019-04-26T00:49:02.893Z,37.04
2019-04-26T00:50:02.864Z,37.15
2019-04-26T00:51:02.904Z,36.84
2019-04-26T00:52:02.845Z,37.15
2019-04-26T00:53:02.854Z,36.94
2019-04-26T00:54:02.818Z,37.04
2019-04-26T00:55:02.799Z,37.04
2019-04-26T00:56:02.806Z,37.45
2019-04-26T00:57:02.787Z,37.24
2019-04-26T00:58:02.827Z,36.94
2019-04-26T00:59:02.765Z,36.94
2019-04-26T01:00:02.743Z,36.94
2019-04-26T01:01:02.711Z,37.24
2019-04-26T01:02:02.783Z,37.24
2019-04-26T01:03:02.734Z,37.04
2019-04-26T01:04:02.680Z,37.35
2019-04-26T01:05:02.691Z,37.15
2019-04-26T01:06:02.660Z,37.24
2019-04-26T01:07:02.729Z,37.15
2019-04-26T01:08:02.638Z,37.24
2019-04-26T01:09:02.643Z,37.35
2019-04-26T01:10:02.669Z,37.37
2019-04-26T01:11:02.602Z,37.65
2019-04-26T01:12:02.694Z,37.57
2019-04-26T01:13:02.621Z,37.46
2019-04-26T01:14:02.570Z,37.57
2019-04-26T01:15:02.561Z,37.66
2019-04-26T01:16:02.563Z,37.87
2019-04-26T01:17:02.545Z,37.99
2019-04-26T01:18:02.582Z,38.19
2019-04-26T01:19:02.544Z,38.29
2019-04-26T01:20:02.503Z,38.09
2019-04-26T01:21:02.499Z,38.19
2019-04-26T01:22:02.483Z,38.19
2019-04-26T01:23:02.549Z,38.39
2019-04-26T01:24:02.471Z,38.29
2019-04-26T01:25:02.469Z,38.59
2019-04-26T01:26:02.444Z,38.39
2019-04-26T01:27:02.435Z,38.39
2019-04-26T01:28:02.451Z,38.49
2019-04-26T01:29:02.463Z,38.59
2019-04-26T01:30:02.402Z,38.78
2019-04-26T01:31:02.395Z,38.57
2019-04-26T01:32:02.385Z,38.80
2019-04-26T01:33:02.377Z,39.00
2019-04-26T01:35:31.256Z,39.20
2019-04-26T01:36:12.400Z,39.40
2019-04-26T01:37:03.361Z,39.30
2019-04-26T01:38:02.351Z,39.40
2019-04-26T01:39:02.369Z,39.62
2019-04-26T01:40:02.296Z,39.73
2019-04-26T01:41:02.309Z,39.73
2019-04-26T01:42:02.318Z,39.93
2019-04-26T01:43:02.263Z,40.13
2019-04-26T01:44:02.288Z,40.03
2019-04-26T01:45:02.235Z,39.93
2019-04-26T01:46:02.238Z,39.84
2019-04-26T01:47:02.232Z,40.05
2019-04-26T01:48:02.235Z,39.95
2019-04-26T01:49:02.194Z,39.95
2019-04-26T01:50:02.253Z,40.27
2019-04-26T01:51:02.201Z,40.77
2019-04-26T01:52:02.164Z,41.36
2019-04-26T01:53:02.154Z,40.86
2019-04-26T01:54:02.141Z,41.16
2019-04-26T01:55:02.192Z,41.06
2019-04-26T01:56:02.125Z,40.86
2019-04-26T01:57:02.112Z,40.86
2019-04-26T01:58:02.095Z,40.75
2019-04-26T01:59:02.099Z,40.75
2019-04-26T02:00:02.117Z,40.98
2019-04-26T02:01:02.085Z,41.08
2019-04-26T02:02:02.058Z,41.08
2019-04-26T02:03:02.053Z,41.18
2019-04-26T02:04:02.043Z,41.28
2019-04-26T02:05:02.066Z,41.38
2019-04-26T02:06:02.006Z,41.69
2019-04-26T02:07:02.062Z,41.89
2019-04-26T02:08:01.998Z,41.89
2019-04-26T02:09:02.004Z,42.01
2019-04-26T02:10:02.044Z,42.01
2019-04-26T02:11:01.984Z,42.11
2019-04-26T02:12:01.978Z,42.41
2019-04-26T02:13:01.969Z,42.61
2019-04-26T02:14:01.951Z,42.92
2019-04-26T02:15:01.984Z,43.32
2019-04-26T02:16:01.935Z,43.43
2019-04-26T02:17:01.923Z,43.63
2019-04-26T02:18:01.923Z,43.93
2019-04-26T02:19:01.964Z,44.26
2019-04-26T02:20:01.923Z,44.36
2019-04-26T02:21:01.884Z,44.36
2019-04-26T02:22:01.885Z,44.66
2019-04-26T02:23:01.854Z,44.87
2019-04-26T02:24:01.909Z,45.07
2019-04-26T02:25:01.844Z,45.17
2019-04-26T02:26:01.869Z,45.27
2019-04-26T02:27:01.851Z,45.47
2019-04-26T02:28:01.827Z,45.79
2019-04-26T02:29:01.809Z,46.10
2019-04-26T02:30:01.834Z,46.51
2019-04-26T02:31:01.809Z,46.83
2019-04-26T02:32:01.765Z,47.24
2019-04-26T02:33:01.759Z,47.44
2019-04-26T02:34:01.740Z,47.75
2019-04-26T02:35:01.800Z,47.64
2019-04-26T02:36:01.713Z,47.85
2019-04-26T02:37:01.714Z,47.85
2019-04-26T02:38:01.739Z,48.25
2019-04-26T02:39:01.738Z,48.05
2019-04-26T02:40:01.700Z,48.38
2019-04-26T02:41:01.668Z,48.68
2019-04-26T02:42:01.657Z,48.58
2019-04-26T02:43:01.647Z,48.88
2019-04-26T02:44:01.678Z,49.08
2019-04-26T02:45:01.621Z,49.21
2019-04-26T02:46:01.625Z,49.52
2019-04-26T02:47:01.666Z,49.82
2019-04-26T02:48:01.584Z,49.92
2019-04-26T02:49:01.577Z,50.23
2019-04-26T02:50:01.567Z,50.35
2019-04-26T02:51:01.562Z,50.65
2019-04-26T02:52:01.579Z,50.76
2019-04-26T02:53:01.541Z,50.86
2019-04-26T02:54:01.522Z,51.06
2019-04-26T02:55:01.517Z,50.96
2019-04-26T02:56:01.505Z,51.16
2019-04-26T02:57:01.538Z,51.16
2019-04-26T02:58:01.481Z,51.26
2019-04-26T02:59:01.465Z,51.37
2019-04-26T03:00:01.475Z,51.46
2019-04-26T03:01:01.441Z,51.57
2019-04-26T03:02:01.509Z,51.70
2019-04-26T03:03:01.443Z,51.79
2019-04-26T03:04:01.409Z,52.10
2019-04-26T03:05:01.426Z,52.20
2019-04-26T03:06:01.389Z,52.40
2019-04-26T03:07:03.554Z,52.61
2019-04-26T03:08:01.381Z,52.73
2019-04-26T03:09:01.370Z,52.94
2019-04-26T03:10:01.373Z,53.04
2019-04-26T03:11:01.378Z,53.34
2019-04-26T03:12:01.842Z,53.65
2019-04-26T03:13:01.336Z,53.75
2019-04-26T03:14:01.337Z,53.85
2019-04-26T03:15:13.556Z,53.96
2019-04-26T03:16:02.284Z,54.28
2019-04-26T03:17:01.288Z,54.49
2019-04-26T03:18:01.287Z,54.69
2019-04-26T03:19:01.306Z,54.90
2019-04-26T03:20:01.235Z,55.00
2019-04-26T03:21:01.242Z,55.20
2019-04-26T03:22:01.229Z,55.30
2019-04-26T03:23:01.216Z,55.40
2019-04-26T03:24:01.231Z,55.40
2019-04-26T03:25:01.188Z,55.51
2019-04-26T03:26:01.168Z,55.60
2019-04-26T03:27:01.184Z,55.81
2019-04-26T03:28:01.154Z,55.71
2019-04-26T03:29:01.158Z,55.81
2019-04-26T03:30:18.949Z,56.12
2019-04-26T03:31:02.119Z,56.21
2019-04-26T03:32:01.129Z,56.32
2019-04-26T03:33:01.172Z,56.52
2019-04-26T03:34:01.171Z,56.42
2019-04-26T03:35:01.197Z,56.52
2019-04-26T03:36:01.060Z,56.75
2019-04-26T03:37:01.028Z,57.16
2019-04-26T03:38:01.037Z,57.36
2019-04-26T03:39:01.003Z,57.46
2019-04-26T03:40:01.116Z,57.97
2019-04-26T03:41:01.009Z,57.97
2019-04-26T03:42:01.006Z,58.28
2019-04-26T03:43:00.991Z,58.61
2019-04-26T03:44:00.944Z,58.61
2019-04-26T03:45:01.004Z,59.01
2019-04-26T03:46:01.011Z,59.22
2019-04-26T03:47:00.928Z,59.32
2019-04-26T03:48:00.931Z,59.63
2019-04-26T03:49:00.901Z,59.83
2019-04-26T03:50:00.895Z,60.06
2019-04-26T03:51:00.913Z,60.16
2019-04-26T03:52:00.874Z,60.47
2019-04-26T03:53:00.856Z,60.77
2019-04-26T03:54:00.846Z,60.98
2019-04-26T03:55:00.840Z,61.08
2019-04-26T03:56:00.850Z,61.18
2019-04-26T03:57:00.853Z,61.18
2019-04-26T03:58:00.860Z,61.29
2019-04-26T03:59:00.787Z,61.29
2019-04-26T04:00:00.780Z,61.38
2019-04-26T04:01:00.793Z,61.49
2019-04-26T04:02:00.775Z,61.69
2019-04-26T04:03:00.754Z,61.59
2019-04-26T04:04:00.748Z,61.90
2019-04-26T04:05:00.784Z,62.02
2019-04-26T04:06:00.732Z,62.23
2019-04-26T04:07:04.903Z,62.43
2019-04-26T04:08:00.729Z,62.43
2019-04-26T04:09:00.673Z,62.13
2019-04-26T04:10:00.668Z,62.13
2019-04-26T04:11:00.683Z,62.54
2019-04-26T04:12:10.949Z,62.33
2019-04-26T04:13:01.721Z,62.43
2019-04-26T04:14:00.739Z,62.74
2019-04-26T04:15:00.641Z,62.87
2019-04-26T04:16:00.642Z,63.07
2019-04-26T04:17:00.593Z,63.18
2019-04-26T04:18:00.593Z,63.18
2019-04-26T04:19:00.605Z,63.18
2019-04-26T04:20:00.597Z,63.38
2019-04-26T04:21:00.558Z,63.48
2019-04-26T04:22:00.531Z,63.92
2019-04-26T04:23:00.536Z,63.71
2019-04-26T04:24:00.572Z,63.82
2019-04-26T04:25:00.549Z,63.92
2019-04-26T04:26:00.490Z,64.22
2019-04-26T04:27:00.473Z,64.22
2019-04-26T04:28:03.358Z,64.22
2019-04-26T04:29:00.476Z,64.02
2019-04-26T04:30:00.504Z,63.92
2019-04-26T04:31:00.439Z,63.92
2019-04-26T04:32:00.423Z,64.36
2019-04-26T04:33:00.436Z,65.07
2019-04-26T04:34:00.409Z,65.10
2019-04-26T04:35:00.431Z,65.20
2019-04-26T04:36:00.411Z,65.17
2019-04-26T04:37:00.368Z,64.87
2019-04-26T04:38:08.374Z,64.66
2019-04-26T04:39:11.330Z,64.66
2019-04-26T04:40:01.386Z,64.90
2019-04-26T04:41:00.363Z,64.76
2019-04-26T04:42:00.324Z,64.76
2019-04-26T04:43:00.417Z,64.79
2019-04-26T04:44:00.328Z,64.79
2019-04-26T04:45:00.284Z,64.59
2019-04-26T04:46:00.430Z,64.49
2019-04-26T04:47:00.270Z,64.59
2019-04-26T04:48:00.254Z,64.39
2019-04-26T04:49:00.244Z,64.18
2019-04-26T04:50:00.264Z,64.08
2019-04-26T04:51:00.224Z,63.87
2019-04-26T04:52:00.235Z,63.87
2019-04-26T04:53:00.201Z,63.78
2019-04-26T04:54:00.185Z,64.08
2019-04-26T04:55:07.110Z,63.95
2019-04-26T04:56:01.174Z,63.64
2019-04-26T04:57:00.183Z,63.54
2019-04-26T04:58:00.160Z,63.64
2019-04-26T04:59:00.154Z,63.64
2019-04-26T05:00:00.145Z,63.85
2019-04-26T05:01:00.802Z,63.95
2019-04-26T05:02:00.148Z,64.15
2019-04-26T05:03:00.125Z,64.15
2019-04-26T05:04:00.077Z,64.49
2019-04-26T05:05:00.114Z,64.49
2019-04-26T05:06:07.273Z,64.36
2019-04-26T05:07:01.046Z,64.05
2019-04-26T05:08:06.800Z,63.95
2019-04-26T05:09:01.064Z,64.15
2019-04-26T05:10:00.036Z,64.25
2019-04-26T05:11:00.003Z,64.15
2019-04-26T05:11:59.994Z,63.85
2019-04-26T05:13:00.024Z,63.95
2019-04-26T05:13:59.964Z,63.85
2019-04-26T05:14:59.987Z,64.25
2019-04-26T05:15:59.950Z,64.15
2019-04-26T05:16:59.935Z,64.36
2019-04-26T05:17:59.963Z,64.36
2019-04-26T05:18:59.915Z,64.15
2019-04-26T05:19:59.922Z,64.25
2019-04-26T05:20:59.898Z,64.15
2019-04-26T05:21:59.904Z,64.15
2019-04-26T05:23:00.176Z,63.95
2019-04-26T05:23:59.882Z,63.85
2019-04-26T05:24:59.886Z,63.85
2019-04-26T05:25:59.917Z,63.64
2019-04-26T05:26:59.893Z,63.75
2019-04-26T05:27:59.867Z,63.64
2019-04-26T05:28:59.866Z,63.51
2019-04-26T05:29:59.815Z,63.00
2019-04-26T05:30:59.806Z,63.00
2019-04-26T05:31:59.813Z,63.44
2019-04-26T05:32:59.816Z,63.51
2019-04-26T05:33:59.745Z,62.90
2019-04-26T05:34:59.738Z,62.80
2019-04-26T05:35:59.725Z,62.70
2019-04-26T05:36:59.724Z,62.26
2019-04-26T05:37:59.772Z,61.75
2019-04-26T05:38:59.724Z,61.11
2019-04-26T05:39:59.716Z,60.91
2019-04-26T05:40:59.686Z,60.68
2019-04-26T05:41:59.655Z,60.16
2019-04-26T05:42:59.755Z,60.06
2019-04-26T05:43:59.635Z,59.96
2019-04-26T05:44:59.665Z,59.96
2019-04-26T05:45:59.623Z,59.45
2019-04-26T05:46:59.613Z,59.12
2019-04-26T05:48:08.395Z,58.92
2019-04-26T05:49:00.600Z,58.71
2019-04-26T05:49:59.595Z,58.84
2019-04-26T05:50:59.573Z,59.66
2019-04-26T05:51:59.584Z,58.81
2019-04-26T05:52:59.800Z,58.69
2019-04-26T05:53:59.548Z,57.56
2019-04-26T05:54:59.525Z,57.23
2019-04-26T05:55:59.526Z,56.39
2019-04-26T05:56:59.495Z,55.99
2019-04-26T05:57:59.545Z,56.29
2019-04-26T05:59:01.425Z,55.99
2019-04-26T05:59:59.466Z,56.29
2019-04-26T06:00:59.512Z,55.88
2019-04-26T06:01:59.453Z,55.48
2019-04-26T06:02:59.456Z,55.55
2019-04-26T06:03:59.442Z,55.15
2019-04-26T06:04:59.428Z,54.82
2019-04-26T06:05:59.949Z,54.31
2019-04-26T06:06:59.413Z,54.11
2019-04-26T06:07:59.428Z,53.58
2019-04-26T06:08:59.633Z,53.98
2019-04-26T06:09:59.404Z,53.25
2019-04-26T06:11:00.019Z,53.04
2019-04-26T06:11:59.385Z,52.61
2019-04-26T06:12:59.327Z,52.20
2019-04-26T06:13:59.902Z,51.78
2019-04-26T06:14:59.300Z,51.37
2019-04-26T06:16:00.127Z,51.27
2019-04-26T06:16:59.324Z,51.07
2019-04-26T06:17:59.710Z,51.37
2019-04-26T06:18:59.708Z,51.37
2019-04-26T06:19:59.469Z,51.27
2019-04-26T06:20:59.787Z,50.94
2019-04-26T06:22:00.057Z,50.84
2019-04-26T06:22:59.739Z,50.63
2019-04-26T06:23:59.993Z,50.21
2019-04-26T06:25:00.381Z,50.11
2019-04-26T06:26:01.452Z,49.78
2019-04-26T06:27:13.034Z,49.48
2019-04-26T06:28:00.665Z,49.05
2019-04-26T06:28:59.173Z,48.42
2019-04-26T06:29:59.185Z,48.02
2019-04-26T06:30:59.443Z,47.79
2019-04-26T06:31:59.130Z,47.59
2019-04-26T06:33:03.247Z,48.54
2019-04-26T06:34:00.936Z,48.57
2019-04-26T06:34:59.344Z,48.67
2019-04-26T06:35:59.352Z,48.67
2019-04-26T06:36:59.737Z,48.46
2019-04-26T06:37:59.784Z,48.03
2019-04-26T06:38:59.918Z,47.83
2019-04-26T06:39:59.935Z,47.41
2019-04-26T06:41:00.027Z,47.74
2019-04-26T06:41:59.042Z,48.14
2019-04-26T06:42:59.027Z,48.03
2019-04-26T06:43:58.999Z,47.91
2019-04-26T06:44:58.980Z,47.81
2019-04-26T06:45:58.968Z,47.28
2019-04-26T06:46:59.816Z,47.28
2019-04-26T06:47:58.963Z,47.08
2019-04-26T06:48:58.971Z,46.76
2019-04-26T06:49:58.928Z,46.96
2019-04-26T06:50:59.812Z,46.76
2019-04-26T06:51:58.946Z,46.33
2019-04-26T06:52:58.919Z,46.25
2019-04-26T06:53:58.880Z,46.53
2019-04-26T06:54:59.758Z,46.45
2019-04-26T06:56:00.810Z,47.16
2019-04-26T06:57:07.893Z,46.56
2019-04-26T06:58:01.108Z,47.51
2019-04-26T06:58:59.702Z,48.34
2019-04-26T06:59:59.199Z,48.32
2019-04-26T07:00:59.009Z,47.36
2019-04-26T07:01:59.150Z,46.61
2019-04-26T07:02:58.958Z,45.89
2019-04-26T07:03:59.674Z,45.16
2019-04-26T07:04:59.371Z,44.85
2019-04-26T07:05:58.907Z,44.65
2019-04-26T07:06:59.906Z,44.65
2019-04-26T07:07:58.919Z,44.43
2019-04-26T07:09:00.558Z,44.13
2019-04-26T07:09:59.132Z,43.71
2019-04-26T07:10:59.581Z,43.18
2019-04-26T07:11:59.480Z,42.98
2019-04-26T07:12:59.596Z,42.90
2019-04-26T07:13:59.287Z,43.62
2019-04-26T07:14:59.480Z,44.35
2019-04-26T07:15:58.650Z,44.35
2019-04-26T07:16:59.710Z,43.93
2019-04-26T07:17:58.622Z,43.91
2019-04-26T07:18:58.723Z,42.15
2019-04-26T07:20:00.838Z,41.73
2019-04-26T07:21:00.490Z,42.13
2019-04-26T07:21:58.586Z,42.33
2019-04-26T07:22:59.367Z,42.64
2019-04-26T07:23:58.637Z,43.30
2019-04-26T07:25:00.004Z,43.18
2019-04-26T07:25:59.222Z,42.86
2019-04-26T07:26:58.535Z,42.64
2019-04-26T07:28:06.453Z,42.64
2019-04-26T07:29:00.081Z,42.24
2019-04-26T07:29:58.639Z,43.80
2019-04-26T07:30:58.495Z,44.41
2019-04-26T07:31:58.483Z,44.09
2019-04-26T07:32:58.466Z,42.11
2019-04-26T07:33:58.490Z,41.59
2019-04-26T07:34:58.475Z,40.55
2019-04-26T07:35:59.009Z,40.89
2019-04-26T07:36:58.420Z,42.01
2019-04-26T07:37:58.414Z,42.03
2019-04-26T07:39:10.422Z,43.71
2019-04-26T07:40:00.631Z,44.13
2019-04-26T07:40:58.387Z,44.98
2019-04-26T07:41:58.367Z,45.58
2019-04-26T07:42:58.355Z,45.68
2019-04-26T07:43:58.345Z,44.95
2019-04-26T07:44:58.358Z,46.09
2019-04-26T07:45:58.351Z,45.48
2019-04-26T07:46:58.314Z,44.95
2019-04-26T07:47:58.306Z,45.26
2019-04-26T07:48:58.348Z,45.03
2019-04-26T07:49:58.285Z,44.83
2019-04-26T07:50:58.279Z,45.18
2019-04-26T07:51:58.287Z,45.58
2019-04-26T07:52:58.247Z,46.01
2019-04-26T07:53:58.279Z,46.66
2019-04-26T07:54:58.229Z,47.26
2019-04-26T07:55:58.216Z,47.19
2019-04-26T07:56:58.213Z,46.78
2019-04-26T07:57:58.215Z,47.49
2019-04-26T07:58:58.244Z,48.42
2019-04-26T07:59:58.168Z,48.90
2019-04-26T08:00:58.358Z,50.41
2019-04-26T08:01:58.190Z,49.90
2019-04-26T08:02:58.143Z,49.35
2019-04-26T08:03:58.195Z,48.52
2019-04-26T08:04:58.123Z,48.10
2019-04-26T08:05:58.110Z,45.98
2019-04-26T08:06:58.100Z,46.31
2019-04-26T08:07:58.090Z,46.13
2019-04-26T08:08:58.109Z,47.16
2019-04-26T08:09:59.732Z,47.16
2019-04-26T08:10:58.175Z,47.28
2019-04-26T08:11:58.044Z,48.67
2019-04-26T08:12:58.030Z,50.54
2019-04-26T08:13:58.058Z,50.94
2019-04-26T08:14:58.685Z,50.41
2019-04-26T08:15:58.071Z,49.80
2019-04-26T08:16:57.989Z,50.11
2019-04-26T08:17:58.015Z,49.90
2019-04-26T08:18:57.960Z,49.88
2019-04-26T08:19:58.864Z,49.17
2019-04-26T08:20:57.989Z,49.05
2019-04-26T08:22:11.555Z,48.93
2019-04-26T08:23:02.788Z,48.30
2019-04-26T08:23:58.922Z,47.97
2019-04-26T08:24:57.914Z,47.99
2019-04-26T08:25:57.902Z,47.87
2019-04-26T08:27:08.225Z,46.51
2019-04-26T08:27:58.870Z,46.41
2019-04-26T08:29:00.617Z,46.41
2019-04-26T08:29:57.853Z,46.33
2019-04-26T08:30:57.840Z,47.08
2019-04-26T08:31:58.836Z,48.24
2019-04-26T08:32:57.814Z,48.44
2019-04-26T08:33:57.846Z,48.95
2019-04-26T08:34:57.912Z,49.05
2019-04-26T08:35:57.783Z,48.95
2019-04-26T08:37:01.732Z,48.65
2019-04-26T08:37:58.776Z,49.27
2019-04-26T08:38:58.373Z,49.38
2019-04-26T08:39:57.774Z,49.48
2019-04-26T08:41:00.502Z,49.30
2019-04-26T08:41:58.713Z,49.50
2019-04-26T08:42:58.770Z,49.90
2019-04-26T08:43:59.779Z,50.23
2019-04-26T08:44:58.683Z,50.13
2019-04-26T08:46:03.051Z,50.13
2019-04-26T08:46:58.667Z,50.34
2019-04-26T08:47:57.653Z,50.43
2019-04-26T08:48:58.107Z,50.34
2019-04-26T08:49:57.633Z,50.34
2019-04-26T08:50:57.660Z,50.23
2019-04-26T08:51:57.614Z,50.34
2019-04-26T08:52:57.920Z,50.34
2019-04-26T08:53:57.584Z,50.76
2019-04-26T08:54:57.575Z,50.76
2019-04-26T08:55:57.853Z,50.46
2019-04-26T08:56:57.594Z,51.07
2019-04-26T08:57:57.550Z,50.35
2019-04-26T08:58:57.534Z,50.66
2019-04-26T08:59:57.524Z,50.76
2019-04-26T09:00:57.526Z,50.66
2019-04-26T09:01:57.516Z,51.09
2019-04-26T09:02:57.571Z,51.72
2019-04-26T09:03:57.514Z,51.32
2019-04-26T09:04:57.464Z,51.29
2019-04-26T09:05:57.495Z,51.60
2019-04-26T09:06:57.446Z,52.31
2019-04-26T09:08:06.848Z,51.93
2019-04-26T09:09:06.827Z,51.93
2019-04-26T09:10:11.195Z,52.15
2019-04-26T09:11:06.826Z,53.27
2019-04-26T09:12:08.274Z,56.82
2019-04-26T09:13:06.764Z,56.41
2019-04-26T09:14:06.746Z,56.01
2019-04-26T09:15:06.743Z,57.84
2019-04-26T09:16:06.879Z,56.62
2019-04-26T09:17:06.728Z,57.56
2019-04-26T09:18:06.971Z,55.63
2019-04-26T09:19:06.784Z,57.08
2019-04-26T09:20:07.898Z,58.09
2019-04-26T09:21:06.845Z,58.09
2019-04-26T09:22:13.030Z,57.89
2019-04-26T09:23:07.751Z,57.08
2019-04-26T09:24:08.268Z,55.45
2019-04-26T09:25:06.639Z,56.26
2019-04-26T09:26:08.652Z,57.79
2019-04-26T09:27:07.628Z,56.47
2019-04-26T09:28:06.647Z,55.35
2019-04-26T09:29:06.598Z,57.08
2019-04-26T09:30:06.589Z,56.06
2019-04-26T09:31:06.578Z,56.85
2019-04-26T09:32:06.556Z,57.56
2019-04-26T09:33:06.641Z,55.12
2019-04-26T09:34:10.327Z,56.13
2019-04-26T09:35:06.531Z,55.73
2019-04-26T09:36:06.578Z,55.73
2019-04-26T09:37:06.526Z,55.83
2019-04-26T09:38:06.523Z,56.44
2019-04-26T09:39:08.234Z,56.13
2019-04-26T09:40:10.560Z,55.53
2019-04-26T09:41:06.482Z,55.32
2019-04-26T09:42:09.613Z,55.15
2019-04-26T09:43:06.437Z,56.67
2019-04-26T09:44:06.445Z,56.98
2019-04-26T09:45:06.463Z,57.59
2019-04-26T09:46:06.399Z,56.47
2019-04-26T09:47:06.689Z,56.87
2019-04-26T09:48:06.389Z,56.67
2019-04-26T09:49:07.062Z,55.86
2019-04-26T09:50:06.409Z,55.58
2019-04-26T09:51:06.350Z,58.86
2019-04-26T09:52:06.344Z,57.84
2019-04-26T09:53:06.358Z,58.45
2019-04-26T09:54:06.318Z,57.13
2019-04-26T09:55:06.375Z,57.23
2019-04-26T09:56:06.298Z,58.35
2019-04-26T09:57:06.280Z,57.64
2019-04-26T09:58:08.502Z,57.95
2019-04-26T09:59:06.791Z,58.45
2019-04-26T10:00:06.299Z,57.03
2019-04-26T10:01:06.421Z,57.84
2019-04-26T10:02:06.232Z,58.25
2019-04-26T10:03:09.322Z,58.25
2019-04-26T10:04:06.269Z,57.43
2019-04-26T10:05:08.015Z,58.45
2019-04-26T10:06:08.283Z,58.04
2019-04-26T10:07:06.199Z,58.89
2019-04-26T10:08:08.323Z,58.69
2019-04-26T10:09:07.422Z,58.69
2019-04-26T10:10:06.140Z,58.78
2019-04-26T10:11:09.668Z,58.99
2019-04-26T10:12:06.201Z,58.48
2019-04-26T10:13:06.131Z,58.58
2019-04-26T10:14:06.152Z,59.60
2019-04-26T10:15:06.120Z,59.09
2019-04-26T10:16:06.139Z,58.92
2019-04-26T10:17:06.092Z,59.01
2019-04-26T10:18:08.133Z,59.01
2019-04-26T10:19:06.190Z,59.12
2019-04-26T10:20:06.019Z,59.32
2019-04-26T10:21:06.277Z,59.75
2019-04-26T10:22:06.010Z,59.66
2019-04-26T10:23:06.006Z,59.96
2019-04-26T10:24:08.192Z,60.27
2019-04-26T10:25:07.603Z,60.27
2019-04-26T10:26:06.992Z,60.16
2019-04-26T10:27:05.951Z,60.47
2019-04-26T10:28:05.955Z,60.16
2019-04-26T10:29:05.944Z,60.75
2019-04-26T10:30:08.862Z,59.83
2019-04-26T10:31:05.931Z,59.93
2019-04-26T10:32:05.901Z,59.73
2019-04-26T10:33:05.934Z,59.86
2019-04-26T10:34:07.805Z,59.96
2019-04-26T10:35:06.921Z,60.27
2019-04-26T10:36:05.856Z,60.06
2019-04-26T10:37:06.513Z,60.16
2019-04-26T10:38:05.863Z,60.27
2019-04-26T10:39:05.832Z,61.08
2019-04-26T10:40:05.841Z,60.14
2019-04-26T10:41:05.811Z,59.96
2019-04-26T10:42:05.823Z,60.06
2019-04-26T10:43:05.794Z,60.77
2019-04-26T10:44:05.818Z,60.68
2019-04-26T10:45:05.806Z,60.98
2019-04-26T10:46:05.756Z,60.68
2019-04-26T10:47:06.085Z,60.27
2019-04-26T10:48:05.747Z,59.96
2019-04-26T10:49:09.758Z,61.11
2019-04-26T10:50:06.734Z,60.70
2019-04-26T10:51:07.295Z,61.00
2019-04-26T10:52:05.682Z,60.88
2019-04-26T10:53:05.689Z,60.50
2019-04-26T10:54:07.416Z,61.31
2019-04-26T10:55:05.680Z,61.52
2019-04-26T10:56:05.639Z,61.21
2019-04-26T10:57:05.638Z,61.41
2019-04-26T10:58:05.632Z,61.31
2019-04-26T10:59:06.086Z,61.85
2019-04-26T11:00:05.626Z,61.54
2019-04-26T11:01:05.633Z,61.95
2019-04-26T11:02:05.571Z,62.26
2019-04-26T11:03:06.172Z,61.98
2019-04-26T11:04:05.565Z,62.29
2019-04-26T11:05:05.535Z,63.34
2019-04-26T11:06:05.570Z,63.95
2019-04-26T11:07:05.518Z,63.95
2019-04-26T11:08:05.529Z,64.05
2019-04-26T11:09:05.526Z,64.18
2019-04-26T11:10:05.511Z,64.69
2019-04-26T11:11:05.509Z,64.69
2019-04-26T11:12:05.456Z,64.90
2019-04-26T11:13:05.454Z,64.59
2019-04-26T11:14:05.442Z,64.79
2019-04-26T11:15:06.242Z,65.10
2019-04-26T11:16:06.975Z,65.00
2019-04-26T11:17:05.422Z,65.00
2019-04-26T11:18:05.421Z,65.20
2019-04-26T11:19:05.386Z,65.31
2019-04-26T11:20:06.180Z,65.41
2019-04-26T11:21:05.422Z,65.00
2019-04-26T11:22:05.351Z,65.61
2019-04-26T11:23:08.213Z,65.61
2019-04-26T11:24:06.349Z,65.51
2019-04-26T11:25:05.312Z,65.61
2019-04-26T11:26:05.349Z,65.51
2019-04-26T11:27:09.263Z,65.61
2019-04-26T11:28:05.281Z,65.81
2019-04-26T11:29:05.284Z,66.36
2019-04-26T11:30:11.576Z,66.46
2019-04-26T11:31:06.334Z,66.36
2019-04-26T11:32:05.233Z,66.05
2019-04-26T11:33:07.191Z,66.39
2019-04-26T11:34:06.274Z,66.90
2019-04-26T11:35:05.219Z,66.69
2019-04-26T11:36:07.397Z,66.59
2019-04-26T11:37:05.191Z,66.69
2019-04-26T11:38:05.213Z,67.30
2019-04-26T11:39:07.166Z,67.21
2019-04-26T11:40:05.179Z,67.00
2019-04-26T11:41:06.626Z,66.59
2019-04-26T11:42:07.912Z,66.90
2019-04-26T11:43:06.178Z,66.18
2019-04-26T11:44:05.113Z,65.57
2019-04-26T11:45:06.347Z,65.88
2019-04-26T11:46:05.153Z,65.98
2019-04-26T11:47:07.816Z,65.98
2019-04-26T11:48:05.108Z,65.77
2019-04-26T11:49:07.131Z,65.19
2019-04-26T11:50:05.095Z,65.50
2019-04-26T11:51:05.082Z,65.60
2019-04-26T11:52:05.035Z,65.84
2019-04-26T11:53:06.161Z,66.45
2019-04-26T11:54:05.003Z,66.45
2019-04-26T11:55:05.002Z,66.75
2019-04-26T11:56:05.826Z,67.07
2019-04-26T11:57:08.293Z,67.16
2019-04-26T11:58:06.058Z,67.47
2019-04-26T11:59:04.943Z,67.68
2019-04-26T12:00:05.593Z,68.60
2019-04-26T12:01:04.987Z,69.55
2019-04-26T12:02:04.925Z,70.67
2019-04-26T12:03:04.939Z,70.78
2019-04-26T12:04:07.114Z,71.22
2019-04-26T12:05:04.893Z,72.14
2019-04-26T12:06:05.892Z,72.78
2019-04-26T12:07:04.936Z,73.30
2019-04-26T12:08:04.885Z,74.32
2019-04-26T12:09:04.913Z,74.63
2019-04-26T12:10:05.909Z,75.14
2019-04-26T12:11:04.824Z,75.55
2019-04-26T12:12:05.392Z,75.96
2019-04-26T12:13:05.909Z,75.86
2019-04-26T12:14:04.920Z,75.62
2019-04-26T12:15:08.563Z,75.42
2019-04-26T12:16:05.782Z,75.52
2019-04-26T12:17:04.745Z,75.17
2019-04-26T12:18:05.517Z,74.87
2019-04-26T12:19:04.951Z,75.72
2019-04-26T12:20:05.474Z,75.52
2019-04-26T12:21:04.753Z,75.52
2019-04-26T12:22:08.468Z,75.52
2019-04-26T12:23:04.691Z,75.79
2019-04-26T12:24:04.713Z,75.48
2019-04-26T12:25:07.257Z,74.87
2019-04-26T12:26:04.711Z,74.19
2019-04-26T12:27:04.742Z,73.98
2019-04-26T12:28:06.152Z,73.88
2019-04-26T12:29:04.684Z,73.36
2019-04-26T12:30:04.614Z,73.78
2019-04-26T12:31:04.661Z,73.98
2019-04-26T12:32:04.657Z,73.88
2019-04-26T12:33:04.576Z,73.71
2019-04-26T12:34:04.553Z,73.71
2019-04-26T12:35:04.554Z,74.46
2019-04-26T12:36:04.591Z,74.77
2019-04-26T12:37:04.529Z,74.66
2019-04-26T12:38:04.513Z,74.46
2019-04-26T12:39:04.501Z,74.05
2019-04-26T12:40:07.184Z,74.84
2019-04-26T12:41:05.523Z,74.15
2019-04-26T12:42:04.482Z,74.46
2019-04-26T12:43:04.462Z,75.07
2019-04-26T12:44:04.513Z,74.66
2019-04-26T12:45:04.485Z,73.64
2019-04-26T12:46:04.493Z,72.82
2019-04-26T12:47:05.224Z,73.44
2019-04-26T12:48:04.486Z,74.29
2019-04-26T12:49:04.443Z,74.36
2019-04-26T12:50:04.460Z,75.38
2019-04-26T12:51:04.374Z,74.77
2019-04-26T12:52:04.380Z,75.07
2019-04-26T12:53:04.390Z,74.66